createdAt,value
2023-01-31T00:04:18.363Z,4.75
2023-01-31T00:09:20.238Z,4.20
2023-01-31T00:14:21.782Z,4.53
2023-01-31T00:19:23.310Z,4.10
2023-01-31T00:24:27.058Z,4.20
2023-01-31T00:29:31.040Z,4.57
2023-01-31T00:34:32.601Z,4.20
2023-01-31T00:39:34.643Z,4.57
2023-01-31T00:44:36.566Z,4.32
2023-01-31T00:49:38.403Z,5.13
2023-01-31T00:54:40.074Z,4.85
2023-01-31T00:59:41.674Z,5.07
2023-01-31T01:04:43.445Z,5.53
2023-01-31T01:09:47.054Z,5.75
2023-01-31T01:14:49.334Z,6.97
2023-01-31T01:19:50.933Z,6.68
2023-01-31T01:24:52.646Z,8.25
2023-01-31T01:29:54.265Z,6.68
2023-01-31T01:34:58.360Z,6.22
2023-01-31T01:39:59.887Z,6.70
2023-01-31T01:45:05.104Z,6.70
2023-01-31T01:50:16.475Z,7.07
2023-01-31T01:55:36.575Z,6.57
2023-01-31T02:00:46.360Z,7.35
2023-01-31T02:06:01.895Z,8.25
2023-01-31T02:11:10.097Z,8.30
2023-01-31T02:16:12.844Z,8.82
2023-01-31T02:21:52.543Z,9.52
2023-01-31T02:27:18.586Z,8.20
2023-01-31T02:32:39.381Z,9.55
2023-01-31T02:38:08.803Z,7.95
2023-01-31T02:43:22.937Z,8.38
2023-01-31T02:48:43.682Z,8.60
2023-01-31T02:53:57.066Z,8.25
2023-01-31T02:59:12.835Z,8.68
2023-01-31T03:04:14.858Z,10.63
2023-01-31T03:09:25.709Z,10.40
2023-01-31T03:14:36.417Z,10.55
2023-01-31T03:19:59.072Z,9.10
2023-01-31T03:25:05.517Z,8.82
2023-01-31T03:30:18.794Z,9.25
2023-01-31T03:35:24.115Z,9.25
2023-01-31T03:40:41.993Z,9.23
2023-01-31T03:45:55.861Z,9.00
2023-01-31T03:51:01.593Z,9.45
2023-01-31T03:56:09.775Z,11.20
2023-01-31T04:01:12.921Z,10.15
2023-01-31T04:06:15.021Z,10.15
2023-01-31T04:11:21.579Z,10.30
2023-01-31T04:16:23.601Z,9.63
2023-01-31T04:21:25.256Z,10.30
2023-01-31T04:26:26.921Z,10.68
2023-01-31T04:31:28.603Z,13.38
2023-01-31T04:36:30.361Z,11.98
2023-01-31T04:41:32.080Z,10.38
2023-01-31T04:46:33.706Z,10.80
2023-01-31T04:51:35.292Z,10.55
2023-01-31T04:56:36.827Z,10.98
2023-01-31T05:01:38.381Z,10.50
2023-01-31T05:06:39.958Z,10.98
2023-01-31T05:11:41.527Z,10.60
2023-01-31T05:16:47.299Z,10.82
2023-01-31T05:22:00.628Z,12.40
2023-01-31T05:27:02.690Z,14.52
2023-01-31T05:32:05.990Z,14.10
2023-01-31T05:37:07.573Z,15.07
2023-01-31T05:42:09.112Z,20.05
2023-01-31T05:47:10.879Z,22.00
2023-01-31T05:52:12.495Z,16.35
2023-01-31T05:57:15.294Z,14.93
2023-01-31T06:02:17.022Z,13.88
2023-01-31T06:07:18.655Z,16.58
2023-01-31T06:12:20.219Z,16.25
2023-01-31T06:17:24.043Z,16.58
2023-01-31T06:22:27.760Z,16.20
2023-01-31T06:27:33.035Z,13.23
2023-01-31T06:32:34.645Z,14.93
2023-01-31T06:37:36.192Z,14.15
2023-01-31T06:42:37.773Z,14.98
2023-01-31T06:47:39.555Z,13.13
2023-01-31T06:52:41.627Z,12.68
2023-01-31T06:57:47.452Z,11.10
2023-01-31T07:02:49.254Z,11.93
2023-01-31T07:07:53.861Z,11.25
2023-01-31T07:12:55.536Z,12.25
2023-01-31T07:17:59.438Z,11.27
2023-01-31T07:23:01.212Z,10.75
2023-01-31T07:28:03.437Z,11.05
2023-01-31T07:33:05.648Z,10.40
2023-01-31T07:38:07.835Z,10.95
2023-01-31T07:43:10.487Z,10.18
2023-01-31T07:48:13.226Z,11.55
2023-01-31T07:53:14.763Z,10.95
2023-01-31T07:58:16.763Z,10.80
2023-01-31T08:03:34.565Z,10.55
2023-01-31T08:08:37.857Z,11.85
2023-01-31T08:13:39.933Z,11.27
2023-01-31T08:18:41.705Z,11.85
2023-01-31T08:23:44.669Z,12.25
2023-01-31T08:28:48.286Z,13.07
2023-01-31T08:33:53.420Z,10.02
2023-01-31T08:38:55.718Z,10.32
2023-01-31T08:43:59.017Z,11.18
2023-01-31T08:49:03.000Z,9.50
2023-01-31T08:54:04.671Z,10.27
2023-01-31T08:59:07.357Z,9.40
2023-01-31T09:04:13.386Z,9.27
2023-01-31T09:09:15.052Z,10.50
2023-01-31T09:14:16.557Z,9.20
2023-01-31T09:19:18.200Z,8.65
2023-01-31T09:25:06.235Z,8.73
2023-01-31T09:30:10.411Z,8.48
2023-01-31T09:35:16.584Z,9.75
2023-01-31T09:40:26.588Z,8.68
2023-01-31T09:45:43.184Z,11.25
2023-01-31T09:50:51.940Z,9.38
2023-01-31T10:01:16.003Z,9.00
2023-01-31T10:06:30.607Z,11.15
2023-01-31T10:11:41.006Z,9.77
2023-01-31T10:16:50.379Z,10.15
2023-01-31T10:21:57.573Z,10.15
2023-01-31T10:27:15.980Z,10.13
2023-01-31T10:32:55.193Z,10.52
2023-01-31T10:38:32.252Z,9.10
2023-01-31T10:43:42.065Z,8.55
2023-01-31T10:54:07.036Z,23.00
2023-01-31T10:59:19.326Z,19.23
2023-01-31T11:04:25.492Z,11.13
2023-01-31T11:09:49.775Z,8.60
2023-01-31T11:15:14.242Z,8.63
2023-01-31T11:20:21.480Z,6.50
2023-01-31T11:25:25.373Z,6.20
2023-01-31T11:30:35.087Z,6.05
2023-01-31T11:40:40.247Z,6.45
2023-01-31T11:45:54.074Z,6.43
2023-01-31T11:50:58.388Z,6.28
2023-01-31T11:56:16.584Z,6.60
2023-01-31T12:01:23.124Z,5.88
2023-01-31T12:06:27.692Z,6.80
2023-01-31T12:11:31.932Z,7.47
2023-01-31T12:16:35.414Z,6.47
2023-01-31T12:22:08.081Z,6.80
2023-01-31T12:27:37.117Z,5.72
2023-01-31T12:32:54.512Z,5.80
2023-01-31T12:38:07.033Z,4.53
2023-01-31T12:43:45.881Z,3.75
2023-01-31T12:48:47.876Z,4.95
2023-01-31T12:54:04.904Z,3.75
2023-01-31T12:59:48.389Z,4.07
2023-01-31T13:04:59.616Z,3.95
2023-01-31T13:10:05.354Z,3.67
2023-01-31T13:15:30.361Z,3.42
2023-01-31T13:20:38.833Z,3.30
2023-01-31T13:26:14.893Z,3.20
2023-01-31T13:31:24.847Z,2.75
2023-01-31T13:36:35.461Z,4.25
2023-01-31T13:41:37.196Z,3.42
2023-01-31T13:46:56.184Z,3.05
2023-01-31T13:52:00.424Z,3.37
2023-01-31T13:57:03.083Z,4.18
2023-01-31T14:02:17.139Z,5.63
2023-01-31T14:07:21.143Z,4.00
2023-01-31T14:12:22.848Z,4.80
2023-01-31T14:17:33.074Z,5.03
2023-01-31T14:22:41.327Z,4.18
2023-01-31T14:27:42.889Z,4.00
2023-01-31T14:32:48.683Z,3.67
2023-01-31T14:38:08.297Z,4.15
2023-01-31T14:43:32.016Z,4.35
2023-01-31T14:48:45.682Z,5.00
2023-01-31T14:54:35.302Z,4.93
2023-01-31T14:59:59.788Z,4.65
2023-01-31T15:05:17.373Z,5.18
2023-01-31T15:10:58.177Z,4.88
2023-01-31T15:16:02.747Z,5.07
2023-01-31T15:21:07.517Z,5.38
2023-01-31T15:26:11.041Z,5.10
2023-01-31T15:31:41.270Z,4.25
2023-01-31T15:37:04.566Z,5.10
2023-01-31T15:42:26.949Z,4.68
2023-01-31T15:47:28.512Z,4.50
2023-01-31T15:52:34.404Z,4.43
2023-01-31T15:57:44.514Z,4.60
2023-01-31T16:02:47.224Z,4.45
2023-01-31T16:07:49.559Z,4.82
2023-01-31T16:12:53.196Z,4.45
2023-01-31T16:18:00.302Z,4.50
2023-01-31T16:23:02.646Z,4.78
2023-01-31T16:28:06.761Z,4.40
2023-01-31T16:33:16.833Z,4.78
2023-01-31T16:38:24.031Z,4.80
2023-01-31T16:43:31.823Z,4.85
2023-01-31T16:48:39.020Z,4.57
2023-01-31T16:53:41.637Z,4.90
2023-01-31T16:58:49.310Z,5.45
2023-01-31T17:04:09.026Z,5.05
2023-01-31T17:14:16.021Z,5.43
2023-01-31T17:19:17.700Z,5.40
2023-01-31T17:24:22.627Z,4.93
2023-01-31T17:29:25.988Z,4.22
2023-01-31T17:34:27.550Z,5.00
2023-01-31T17:39:29.126Z,5.93
2023-01-31T17:44:31.058Z,5.00
2023-01-31T17:49:34.914Z,5.20
2023-01-31T17:54:36.501Z,4.80
2023-01-31T17:59:38.185Z,5.35
2023-01-31T18:04:39.768Z,5.88
2023-01-31T18:09:41.332Z,5.68
2023-01-31T18:14:43.084Z,5.03
2023-01-31T18:19:44.593Z,5.63
2023-01-31T18:24:46.211Z,5.32
2023-01-31T18:29:47.725Z,5.47
2023-01-31T18:34:49.446Z,5.43
2023-01-31T18:39:52.659Z,6.13
2023-01-31T18:44:54.253Z,6.00
2023-01-31T18:49:55.905Z,5.45
2023-01-31T18:54:57.534Z,5.72
2023-01-31T18:59:59.072Z,5.50
2023-01-31T19:05:01.830Z,5.55
2023-01-31T19:10:04.101Z,5.55
2023-01-31T19:15:07.732Z,5.38
2023-01-31T19:20:10.247Z,5.72
2023-01-31T19:25:11.892Z,5.28
2023-01-31T19:30:14.067Z,4.78
2023-01-31T19:35:15.714Z,5.07
2023-01-31T19:40:17.480Z,5.40
2023-01-31T19:45:22.804Z,5.18
2023-01-31T19:50:24.572Z,5.50
2023-01-31T19:55:26.123Z,5.00
2023-01-31T20:00:31.811Z,4.88
2023-01-31T20:05:33.484Z,6.15
2023-01-31T20:10:37.441Z,5.88
2023-01-31T20:15:39.038Z,5.68
2023-01-31T20:20:44.115Z,5.53
2023-01-31T20:25:49.421Z,5.40
2023-01-31T20:30:51.443Z,5.90
2023-01-31T20:35:53.049Z,5.65
2023-01-31T20:40:55.563Z,5.78
2023-01-31T20:46:10.380Z,6.05
2023-01-31T20:51:11.987Z,6.45
2023-01-31T20:56:13.582Z,5.35
2023-01-31T21:01:15.224Z,5.82
2023-01-31T21:06:16.797Z,6.25
2023-01-31T21:11:18.383Z,5.80
2023-01-31T21:16:20.086Z,5.45
2023-01-31T21:21:24.365Z,5.43
2023-01-31T21:26:27.127Z,4.57
2023-01-31T21:31:29.963Z,5.28
2023-01-31T21:36:32.961Z,6.28
2023-01-31T21:41:52.725Z,5.38
2023-01-31T21:51:55.831Z,5.32
2023-01-31T21:56:57.883Z,5.88
2023-01-31T22:01:59.674Z,5.90
2023-01-31T22:07:01.641Z,6.32
2023-01-31T22:12:03.367Z,6.30
2023-01-31T22:17:05.109Z,6.50
2023-01-31T22:22:06.640Z,6.25
2023-01-31T22:27:08.185Z,6.72
2023-01-31T22:32:09.869Z,6.60
2023-01-31T22:37:11.505Z,7.40
2023-01-31T22:42:13.058Z,6.97
2023-01-31T22:47:14.681Z,7.28
2023-01-31T22:52:16.263Z,8.20
2023-01-31T22:57:17.843Z,6.93
2023-01-31T23:02:19.369Z,7.18
2023-01-31T23:07:20.920Z,8.15
2023-01-31T23:12:22.533Z,7.22
2023-01-31T23:17:39.365Z,7.88
2023-01-31T23:22:41.461Z,8.43
2023-01-31T23:27:43.610Z,8.15
2023-01-31T23:32:45.586Z,7.50
2023-01-31T23:37:49.609Z,6.95
2023-01-31T23:42:51.185Z,6.63
2023-01-31T23:47:52.871Z,6.72
2023-01-31T23:52:55.844Z,6.63
2023-01-31T23:57:57.384Z,6.15
